sensor_id;sensor_type;location;lat;lon;timestamp;temperature;humidity
22558;DHT22;11445;53.816;8.902;2023-04-19T00:02:11;6.80;99.90
22558;DHT22;11445;53.816;8.902;2023-04-19T00:04:38;6.80;99.90
22558;DHT22;11445;53.816;8.902;2023-04-19T00:07:07;6.80;99.90
22558;DHT22;11445;53.816;8.902;2023-04-19T00:09:34;6.70;99.90
22558;DHT22;11445;53.816;8.902;2023-04-19T00:12:01;6.80;99.90
22558;DHT22;11445;53.816;8.902;2023-04-19T00:14:28;6.70;99.90
22558;DHT22;11445;53.816;8.902;2023-04-19T00:16:55;6.70;99.90
22558;DHT22;11445;53.816;8.902;2023-04-19T00:19:22;6.70;99.90
22558;DHT22;11445;53.816;8.902;2023-04-19T00:21:49;6.70;99.90
22558;DHT22;11445;53.816;8.902;2023-04-19T00:24:18;6.70;99.90
22558;DHT22;11445;53.816;8.902;2023-04-19T00:26:45;6.60;99.90
22558;DHT22;11445;53.816;8.902;2023-04-19T00:29:12;6.60;99.90
22558;DHT22;11445;53.816;8.902;2023-04-19T00:31:39;6.60;99.90
22558;DHT22;11445;53.816;8.902;2023-04-19T00:34:06;6.60;99.90
22558;DHT22;11445;53.816;8.902;2023-04-19T00:36:33;6.60;99.90
22558;DHT22;11445;53.816;8.902;2023-04-19T00:39:00;6.60;99.90
22558;DHT22;11445;53.816;8.902;2023-04-19T00:41:29;6.60;99.90
22558;DHT22;11445;53.816;8.902;2023-04-19T00:43:56;6.50;99.90
22558;DHT22;11445;53.816;8.902;2023-04-19T00:46:23;6.60;99.90
22558;DHT22;11445;53.816;8.902;2023-04-19T00:48:50;6.50;99.90
22558;DHT22;11445;53.816;8.902;2023-04-19T00:51:18;6.50;99.90
22558;DHT22;11445;53.816;8.902;2023-04-19T00:53:45;6.50;99.90
22558;DHT22;11445;53.816;8.902;2023-04-19T00:56:13;6.50;99.90
22558;DHT22;11445;53.816;8.902;2023-04-19T00:58:42;6.40;99.90
22558;DHT22;11445;53.816;8.902;2023-04-19T01:01:09;6.40;99.90
22558;DHT22;11445;53.816;8.902;2023-04-19T01:03:36;6.40;99.90
22558;DHT22;11445;53.816;8.902;2023-04-19T01:06:04;6.40;99.90
22558;DHT22;11445;53.816;8.902;2023-04-19T01:08:31;6.30;99.90
22558;DHT22;11445;53.816;8.902;2023-04-19T01:10:58;6.30;99.90
22558;DHT22;11445;53.816;8.902;2023-04-19T01:13:25;6.40;99.90
22558;DHT22;11445;53.816;8.902;2023-04-19T01:15:54;6.30;99.90
22558;DHT22;11445;53.816;8.902;2023-04-19T01:18:21;6.40;99.90
22558;DHT22;11445;53.816;8.902;2023-04-19T01:20:50;6.30;99.90
22558;DHT22;11445;53.816;8.902;2023-04-19T01:23:19;6.30;99.90
22558;DHT22;11445;53.816;8.902;2023-04-19T01:25:46;6.30;99.90
22558;DHT22;11445;53.816;8.902;2023-04-19T01:28:13;6.30;99.90
22558;DHT22;11445;53.816;8.902;2023-04-19T01:30:40;6.30;99.90
22558;DHT22;11445;53.816;8.902;2023-04-19T01:33:07;6.40;99.90
22558;DHT22;11445;53.816;8.902;2023-04-19T01:35:34;6.30;99.90
22558;DHT22;11445;53.816;8.902;2023-04-19T01:38:01;6.30;99.90
22558;DHT22;11445;53.816;8.902;2023-04-19T01:40:29;6.30;99.90
22558;DHT22;11445;53.816;8.902;2023-04-19T01:42:56;6.30;99.90
22558;DHT22;11445;53.816;8.902;2023-04-19T01:45:23;6.30;99.90
22558;DHT22;11445;53.816;8.902;2023-04-19T01:47:51;6.30;99.90
22558;DHT22;11445;53.816;8.902;2023-04-19T01:50:18;6.30;99.90
22558;DHT22;11445;53.816;8.902;2023-04-19T01:52:45;6.30;99.90
22558;DHT22;11445;53.816;8.902;2023-04-19T01:55:12;6.30;99.90
22558;DHT22;11445;53.816;8.902;2023-04-19T01:57:40;6.30;99.90
22558;DHT22;11445;53.816;8.902;2023-04-19T02:00:08;6.30;99.90
22558;DHT22;11445;53.816;8.902;2023-04-19T02:02:36;6.30;99.90
22558;DHT22;11445;53.816;8.902;2023-04-19T02:05:04;6.30;99.90
22558;DHT22;11445;53.816;8.902;2023-04-19T02:07:31;6.30;99.90
22558;DHT22;11445;53.816;8.902;2023-04-19T02:09:58;6.20;99.90
22558;DHT22;11445;53.816;8.902;2023-04-19T02:12:26;6.30;99.90
22558;DHT22;11445;53.816;8.902;2023-04-19T02:14:55;6.20;99.90
22558;DHT22;11445;53.816;8.902;2023-04-19T02:17:22;6.20;99.90
22558;DHT22;11445;53.816;8.902;2023-04-19T02:19:50;6.20;99.90
22558;DHT22;11445;53.816;8.902;2023-04-19T02:22:18;6.10;99.90
22558;DHT22;11445;53.816;8.902;2023-04-19T02:24:45;6.20;99.90
22558;DHT22;11445;53.816;8.902;2023-04-19T02:27:13;6.10;99.90
22558;DHT22;11445;53.816;8.902;2023-04-19T02:29:40;6.10;99.90
22558;DHT22;11445;53.816;8.902;2023-04-19T02:32:08;6.10;99.90
22558;DHT22;11445;53.816;8.902;2023-04-19T02:34:35;6.10;99.90
22558;DHT22;11445;53.816;8.902;2023-04-19T02:37:02;6.10;99.90
22558;DHT22;11445;53.816;8.902;2023-04-19T02:39:29;6.10;99.90
22558;DHT22;11445;53.816;8.902;2023-04-19T02:41:56;6.10;99.90
22558;DHT22;11445;53.816;8.902;2023-04-19T02:44:23;6.10;99.90
22558;DHT22;11445;53.816;8.902;2023-04-19T02:46:51;6.10;99.90
22558;DHT22;11445;53.816;8.902;2023-04-19T02:49:20;6.00;99.90
22558;DHT22;11445;53.816;8.902;2023-04-19T02:51:49;6.00;99.90
22558;DHT22;11445;53.816;8.902;2023-04-19T02:54:16;6.00;99.90
22558;DHT22;11445;53.816;8.902;2023-04-19T02:56:43;6.00;99.90
22558;DHT22;11445;53.816;8.902;2023-04-19T02:59:10;6.10;99.90
22558;DHT22;11445;53.816;8.902;2023-04-19T03:01:37;6.10;99.90
22558;DHT22;11445;53.816;8.902;2023-04-19T03:04:04;6.10;99.90
22558;DHT22;11445;53.816;8.902;2023-04-19T03:06:32;6.10;99.90
22558;DHT22;11445;53.816;8.902;2023-04-19T03:08:59;6.10;99.90
22558;DHT22;11445;53.816;8.902;2023-04-19T03:11:26;6.10;99.90
22558;DHT22;11445;53.816;8.902;2023-04-19T03:13:53;6.10;99.90
22558;DHT22;11445;53.816;8.902;2023-04-19T03:16:20;6.10;99.90
22558;DHT22;11445;53.816;8.902;2023-04-19T03:18:47;6.10;99.90
22558;DHT22;11445;53.816;8.902;2023-04-19T03:21:14;6.10;99.90
22558;DHT22;11445;53.816;8.902;2023-04-19T03:23:43;6.20;99.90
22558;DHT22;11445;53.816;8.902;2023-04-19T03:26:10;6.20;99.90
22558;DHT22;11445;53.816;8.902;2023-04-19T03:28:37;6.10;99.90
22558;DHT22;11445;53.816;8.902;2023-04-19T03:31:04;6.20;99.90
22558;DHT22;11445;53.816;8.902;2023-04-19T03:33:31;6.10;99.90
22558;DHT22;11445;53.816;8.902;2023-04-19T03:35:58;6.10;99.90
22558;DHT22;11445;53.816;8.902;2023-04-19T03:38:25;6.10;99.90
22558;DHT22;11445;53.816;8.902;2023-04-19T03:40:53;6.20;99.90
22558;DHT22;11445;53.816;8.902;2023-04-19T03:43:22;6.10;99.90
22558;DHT22;11445;53.816;8.902;2023-04-19T03:45:49;6.10;99.90
22558;DHT22;11445;53.816;8.902;2023-04-19T03:48:16;6.10;99.90
22558;DHT22;11445;53.816;8.902;2023-04-19T03:50:43;6.10;99.90
22558;DHT22;11445;53.816;8.902;2023-04-19T03:53:10;6.10;99.90
22558;DHT22;11445;53.816;8.902;2023-04-19T03:55:38;6.10;99.90
22558;DHT22;11445;53.816;8.902;2023-04-19T03:58:06;6.10;99.90
22558;DHT22;11445;53.816;8.902;2023-04-19T04:00:35;6.10;99.90
22558;DHT22;11445;53.816;8.902;2023-04-19T04:03:02;6.10;99.90
22558;DHT22;11445;53.816;8.902;2023-04-19T04:05:29;6.20;99.90
22558;DHT22;11445;53.816;8.902;2023-04-19T04:07:56;6.20;99.90
22558;DHT22;11445;53.816;8.902;2023-04-19T04:10:23;6.20;99.90
22558;DHT22;11445;53.816;8.902;2023-04-19T04:12:50;6.20;99.90
22558;DHT22;11445;53.816;8.902;2023-04-19T04:15:18;6.20;99.90
22558;DHT22;11445;53.816;8.902;2023-04-19T04:17:45;6.20;99.90
22558;DHT22;11445;53.816;8.902;2023-04-19T04:20:12;6.20;99.90
22558;DHT22;11445;53.816;8.902;2023-04-19T04:22:41;6.20;99.90
22558;DHT22;11445;53.816;8.902;2023-04-19T04:25:10;6.20;99.90
22558;DHT22;11445;53.816;8.902;2023-04-19T04:27:38;6.20;99.90
22558;DHT22;11445;53.816;8.902;2023-04-19T04:30:06;6.20;99.90
22558;DHT22;11445;53.816;8.902;2023-04-19T04:32:35;6.20;99.90
22558;DHT22;11445;53.816;8.902;2023-04-19T04:35:02;6.20;99.90
22558;DHT22;11445;53.816;8.902;2023-04-19T04:37:31;6.20;99.90
22558;DHT22;11445;53.816;8.902;2023-04-19T04:39:59;6.20;99.90
22558;DHT22;11445;53.816;8.902;2023-04-19T04:42:26;6.20;99.90
22558;DHT22;11445;53.816;8.902;2023-04-19T04:44:56;6.20;99.90
22558;DHT22;11445;53.816;8.902;2023-04-19T04:47:23;6.20;99.90
22558;DHT22;11445;53.816;8.902;2023-04-19T04:49:52;6.20;99.90
22558;DHT22;11445;53.816;8.902;2023-04-19T04:52:19;6.10;99.90
22558;DHT22;11445;53.816;8.902;2023-04-19T04:54:46;6.10;99.90
22558;DHT22;11445;53.816;8.902;2023-04-19T04:57:13;6.10;99.90
22558;DHT22;11445;53.816;8.902;2023-04-19T04:59:40;6.10;99.90
22558;DHT22;11445;53.816;8.902;2023-04-19T05:02:07;6.10;99.90
22558;DHT22;11445;53.816;8.902;2023-04-19T05:04:34;6.10;99.90
22558;DHT22;11445;53.816;8.902;2023-04-19T05:07:02;6.10;99.90
22558;DHT22;11445;53.816;8.902;2023-04-19T05:09:29;6.20;99.90
22558;DHT22;11445;53.816;8.902;2023-04-19T05:11:56;6.40;99.90
22558;DHT22;11445;53.816;8.902;2023-04-19T05:14:24;6.40;99.90
22558;DHT22;11445;53.816;8.902;2023-04-19T05:16:51;6.40;99.90
22558;DHT22;11445;53.816;8.902;2023-04-19T05:19:18;6.40;99.90
22558;DHT22;11445;53.816;8.902;2023-04-19T05:21:45;6.40;99.90
22558;DHT22;11445;53.816;8.902;2023-04-19T05:24:13;6.40;99.90
22558;DHT22;11445;53.816;8.902;2023-04-19T05:26:40;6.40;99.90
22558;DHT22;11445;53.816;8.902;2023-04-19T05:29:07;6.40;99.90
22558;DHT22;11445;53.816;8.902;2023-04-19T05:31:34;6.40;99.90
22558;DHT22;11445;53.816;8.902;2023-04-19T05:34:01;6.40;99.90
22558;DHT22;11445;53.816;8.902;2023-04-19T05:36:28;6.40;99.90
22558;DHT22;11445;53.816;8.902;2023-04-19T05:38:55;6.40;99.90
22558;DHT22;11445;53.816;8.902;2023-04-19T05:41:23;6.50;99.90
22558;DHT22;11445;53.816;8.902;2023-04-19T05:43:51;6.50;99.90
22558;DHT22;11445;53.816;8.902;2023-04-19T05:46:18;6.50;99.90
22558;DHT22;11445;53.816;8.902;2023-04-19T05:48:45;6.60;99.90
22558;DHT22;11445;53.816;8.902;2023-04-19T05:51:12;6.60;99.90
22558;DHT22;11445;53.816;8.902;2023-04-19T05:53:42;6.60;99.90
22558;DHT22;11445;53.816;8.902;2023-04-19T05:56:09;6.70;99.90
22558;DHT22;11445;53.816;8.902;2023-04-19T05:58:37;6.70;99.90
22558;DHT22;11445;53.816;8.902;2023-04-19T06:01:04;6.70;99.90
22558;DHT22;11445;53.816;8.902;2023-04-19T06:03:31;6.80;99.90
22558;DHT22;11445;53.816;8.902;2023-04-19T06:05:59;6.80;99.90
22558;DHT22;11445;53.816;8.902;2023-04-19T06:08:26;6.90;99.90
22558;DHT22;11445;53.816;8.902;2023-04-19T06:10:53;6.90;99.90
22558;DHT22;11445;53.816;8.902;2023-04-19T06:13:21;7.00;99.90
22558;DHT22;11445;53.816;8.902;2023-04-19T06:15:49;7.00;99.90
22558;DHT22;11445;53.816;8.902;2023-04-19T06:18:17;7.00;99.90
22558;DHT22;11445;53.816;8.902;2023-04-19T06:20:44;7.10;99.90
22558;DHT22;11445;53.816;8.902;2023-04-19T06:23:11;7.10;99.90
22558;DHT22;11445;53.816;8.902;2023-04-19T06:25:39;7.20;99.90
22558;DHT22;11445;53.816;8.902;2023-04-19T06:28:06;7.20;99.90
22558;DHT22;11445;53.816;8.902;2023-04-19T06:30:33;7.30;99.90
22558;DHT22;11445;53.816;8.902;2023-04-19T06:33:01;7.30;99.90
22558;DHT22;11445;53.816;8.902;2023-04-19T06:35:28;7.40;99.90
22558;DHT22;11445;53.816;8.902;2023-04-19T06:37:55;7.40;99.90
22558;DHT22;11445;53.816;8.902;2023-04-19T06:40:23;7.50;99.90
22558;DHT22;11445;53.816;8.902;2023-04-19T06:42:51;7.50;99.90
22558;DHT22;11445;53.816;8.902;2023-04-19T06:45:18;7.60;99.90
22558;DHT22;11445;53.816;8.902;2023-04-19T06:47:45;7.70;99.90
22558;DHT22;11445;53.816;8.902;2023-04-19T06:50:14;7.80;99.90
22558;DHT22;11445;53.816;8.902;2023-04-19T06:52:41;7.80;99.90
22558;DHT22;11445;53.816;8.902;2023-04-19T06:55:08;7.90;99.90
22558;DHT22;11445;53.816;8.902;2023-04-19T06:57:36;7.90;99.90
22558;DHT22;11445;53.816;8.902;2023-04-19T07:00:04;8.00;99.90
22558;DHT22;11445;53.816;8.902;2023-04-19T07:02:31;8.10;99.90
22558;DHT22;11445;53.816;8.902;2023-04-19T07:04:58;8.20;99.90
22558;DHT22;11445;53.816;8.902;2023-04-19T07:07:27;8.30;99.90
22558;DHT22;11445;53.816;8.902;2023-04-19T07:09:54;8.30;99.90
22558;DHT22;11445;53.816;8.902;2023-04-19T07:12:21;8.40;99.90
22558;DHT22;11445;53.816;8.902;2023-04-19T07:14:48;8.50;99.90
22558;DHT22;11445;53.816;8.902;2023-04-19T07:17:20;8.60;99.90
22558;DHT22;11445;53.816;8.902;2023-04-19T07:19:47;8.60;99.90
22558;DHT22;11445;53.816;8.902;2023-04-19T07:22:15;8.70;99.90
22558;DHT22;11445;53.816;8.902;2023-04-19T07:24:43;8.70;99.90
22558;DHT22;11445;53.816;8.902;2023-04-19T07:27:10;8.80;99.90
22558;DHT22;11445;53.816;8.902;2023-04-19T07:29:38;8.90;99.90
22558;DHT22;11445;53.816;8.902;2023-04-19T07:32:06;8.90;99.90
22558;DHT22;11445;53.816;8.902;2023-04-19T07:34:34;9.00;99.90
22558;DHT22;11445;53.816;8.902;2023-04-19T07:37:02;9.00;99.90
22558;DHT22;11445;53.816;8.902;2023-04-19T07:39:29;9.10;99.90
22558;DHT22;11445;53.816;8.902;2023-04-19T07:41:58;9.10;99.90
22558;DHT22;11445;53.816;8.902;2023-04-19T07:44:26;9.10;99.90
22558;DHT22;11445;53.816;8.902;2023-04-19T07:46:53;9.20;99.90
22558;DHT22;11445;53.816;8.902;2023-04-19T07:49:20;9.20;99.90
22558;DHT22;11445;53.816;8.902;2023-04-19T07:51:47;9.30;99.90
22558;DHT22;11445;53.816;8.902;2023-04-19T07:54:14;9.40;99.90
22558;DHT22;11445;53.816;8.902;2023-04-19T07:56:44;9.50;99.90
22558;DHT22;11445;53.816;8.902;2023-04-19T07:59:13;9.60;99.90
22558;DHT22;11445;53.816;8.902;2023-04-19T08:01:41;9.70;99.90
22558;DHT22;11445;53.816;8.902;2023-04-19T08:04:08;9.80;99.90
22558;DHT22;11445;53.816;8.902;2023-04-19T08:06:36;9.80;99.90
22558;DHT22;11445;53.816;8.902;2023-04-19T08:09:04;9.90;99.90
22558;DHT22;11445;53.816;8.902;2023-04-19T08:11:31;10.00;99.90
22558;DHT22;11445;53.816;8.902;2023-04-19T08:13:58;10.10;99.90
22558;DHT22;11445;53.816;8.902;2023-04-19T08:16:26;10.20;99.90
22558;DHT22;11445;53.816;8.902;2023-04-19T08:18:54;10.20;99.90
22558;DHT22;11445;53.816;8.902;2023-04-19T08:21:21;10.30;99.90
22558;DHT22;11445;53.816;8.902;2023-04-19T08:23:48;10.30;99.90
22558;DHT22;11445;53.816;8.902;2023-04-19T08:26:17;10.40;99.90
22558;DHT22;11445;53.816;8.902;2023-04-19T08:28:44;10.50;99.90
22558;DHT22;11445;53.816;8.902;2023-04-19T08:31:11;10.50;99.90
22558;DHT22;11445;53.816;8.902;2023-04-19T08:33:39;10.60;99.90
22558;DHT22;11445;53.816;8.902;2023-04-19T08:36:07;10.60;99.90
22558;DHT22;11445;53.816;8.902;2023-04-19T08:38:34;10.70;99.90
22558;DHT22;11445;53.816;8.902;2023-04-19T08:41:03;10.70;99.90
22558;DHT22;11445;53.816;8.902;2023-04-19T08:43:35;10.80;99.90
22558;DHT22;11445;53.816;8.902;2023-04-19T08:46:03;10.80;99.90
22558;DHT22;11445;53.816;8.902;2023-04-19T08:48:33;10.90;99.90
22558;DHT22;11445;53.816;8.902;2023-04-19T08:51:03;10.90;99.90
22558;DHT22;11445;53.816;8.902;2023-04-19T08:53:33;11.00;99.90
22558;DHT22;11445;53.816;8.902;2023-04-19T08:56:01;11.10;99.90
22558;DHT22;11445;53.816;8.902;2023-04-19T08:58:29;11.20;99.90
22558;DHT22;11445;53.816;8.902;2023-04-19T09:00:57;11.20;99.90
22558;DHT22;11445;53.816;8.902;2023-04-19T09:03:25;11.20;99.90
22558;DHT22;11445;53.816;8.902;2023-04-19T09:05:52;11.20;99.90
22558;DHT22;11445;53.816;8.902;2023-04-19T09:08:26;11.20;99.90
22558;DHT22;11445;53.816;8.902;2023-04-19T09:10:54;11.30;99.90
22558;DHT22;11445;53.816;8.902;2023-04-19T09:13:21;11.40;99.90
22558;DHT22;11445;53.816;8.902;2023-04-19T09:15:49;11.40;99.90
22558;DHT22;11445;53.816;8.902;2023-04-19T09:18:16;11.50;99.90
22558;DHT22;11445;53.816;8.902;2023-04-19T09:20:44;11.50;99.90
22558;DHT22;11445;53.816;8.902;2023-04-19T09:23:13;11.60;99.90
22558;DHT22;11445;53.816;8.902;2023-04-19T09:25:51;11.70;99.90
22558;DHT22;11445;53.816;8.902;2023-04-19T09:28:19;11.70;99.90
22558;DHT22;11445;53.816;8.902;2023-04-19T09:30:46;11.80;99.90
22558;DHT22;11445;53.816;8.902;2023-04-19T09:33:17;11.90;99.90
22558;DHT22;11445;53.816;8.902;2023-04-19T09:35:48;11.90;99.90
22558;DHT22;11445;53.816;8.902;2023-04-19T09:38:15;12.00;99.90
22558;DHT22;11445;53.816;8.902;2023-04-19T09:40:44;12.00;99.90
22558;DHT22;11445;53.816;8.902;2023-04-19T09:43:12;12.00;99.90
22558;DHT22;11445;53.816;8.902;2023-04-19T09:45:40;12.00;99.90
22558;DHT22;11445;53.816;8.902;2023-04-19T09:48:08;12.00;99.90
22558;DHT22;11445;53.816;8.902;2023-04-19T09:50:44;12.10;99.90
22558;DHT22;11445;53.816;8.902;2023-04-19T09:53:16;12.10;99.90
22558;DHT22;11445;53.816;8.902;2023-04-19T09:55:45;12.10;99.90
22558;DHT22;11445;53.816;8.902;2023-04-19T09:58:13;12.10;99.90
22558;DHT22;11445;53.816;8.902;2023-04-19T10:00:43;12.20;99.90
22558;DHT22;11445;53.816;8.902;2023-04-19T10:03:13;12.20;99.90
22558;DHT22;11445;53.816;8.902;2023-04-19T10:05:41;12.30;99.90
22558;DHT22;11445;53.816;8.902;2023-04-19T10:08:09;12.30;99.90
22558;DHT22;11445;53.816;8.902;2023-04-19T10:10:37;12.40;99.90
22558;DHT22;11445;53.816;8.902;2023-04-19T10:13:10;12.40;99.90
22558;DHT22;11445;53.816;8.902;2023-04-19T10:15:38;12.50;99.90
22558;DHT22;11445;53.816;8.902;2023-04-19T10:18:07;12.50;99.90
22558;DHT22;11445;53.816;8.902;2023-04-19T10:20:40;12.50;99.90
22558;DHT22;11445;53.816;8.902;2023-04-19T10:23:07;12.50;99.90
22558;DHT22;11445;53.816;8.902;2023-04-19T10:25:36;12.60;99.90
22558;DHT22;11445;53.816;8.902;2023-04-19T10:28:03;12.60;99.90
22558;DHT22;11445;53.816;8.902;2023-04-19T10:30:32;12.60;99.90
22558;DHT22;11445;53.816;8.902;2023-04-19T10:32:59;12.70;99.90
22558;DHT22;11445;53.816;8.902;2023-04-19T10:35:34;12.80;99.90
22558;DHT22;11445;53.816;8.902;2023-04-19T10:38:07;12.90;99.90
22558;DHT22;11445;53.816;8.902;2023-04-19T10:40:58;12.90;99.90
22558;DHT22;11445;53.816;8.902;2023-04-19T10:43:29;12.90;99.90
22558;DHT22;11445;53.816;8.902;2023-04-19T10:46:05;12.90;99.90
22558;DHT22;11445;53.816;8.902;2023-04-19T10:48:39;12.90;99.90
22558;DHT22;11445;53.816;8.902;2023-04-19T10:51:13;12.90;99.90
22558;DHT22;11445;53.816;8.902;2023-04-19T10:53:48;13.00;99.90
22558;DHT22;11445;53.816;8.902;2023-04-19T10:56:17;13.10;99.90
22558;DHT22;11445;53.816;8.902;2023-04-19T10:59:13;13.10;99.90
22558;DHT22;11445;53.816;8.902;2023-04-19T11:01:50;13.10;99.90
22558;DHT22;11445;53.816;8.902;2023-04-19T11:04:18;13.20;99.90
22558;DHT22;11445;53.816;8.902;2023-04-19T11:07:00;13.20;99.90
22558;DHT22;11445;53.816;8.902;2023-04-19T11:09:30;13.30;99.90
22558;DHT22;11445;53.816;8.902;2023-04-19T11:12:00;13.30;99.90
22558;DHT22;11445;53.816;8.902;2023-04-19T11:14:31;13.30;99.90
22558;DHT22;11445;53.816;8.902;2023-04-19T11:17:01;13.30;99.90
22558;DHT22;11445;53.816;8.902;2023-04-19T11:19:29;13.30;99.90
22558;DHT22;11445;53.816;8.902;2023-04-19T11:21:58;13.30;99.90
22558;DHT22;11445;53.816;8.902;2023-04-19T11:24:25;13.40;99.90
22558;DHT22;11445;53.816;8.902;2023-04-19T11:26:55;13.50;99.90
22558;DHT22;11445;53.816;8.902;2023-04-19T11:29:24;13.50;99.90
22558;DHT22;11445;53.816;8.902;2023-04-19T11:31:51;13.40;99.90
22558;DHT22;11445;53.816;8.902;2023-04-19T11:34:22;13.40;99.90
22558;DHT22;11445;53.816;8.902;2023-04-19T11:36:50;13.40;99.90
22558;DHT22;11445;53.816;8.902;2023-04-19T11:39:17;13.40;99.90
22558;DHT22;11445;53.816;8.902;2023-04-19T11:41:44;13.40;99.90
22558;DHT22;11445;53.816;8.902;2023-04-19T11:44:13;13.40;99.90
22558;DHT22;11445;53.816;8.902;2023-04-19T11:46:40;13.40;99.90
22558;DHT22;11445;53.816;8.902;2023-04-19T11:49:08;13.40;99.90
22558;DHT22;11445;53.816;8.902;2023-04-19T11:51:41;13.50;99.90
22558;DHT22;11445;53.816;8.902;2023-04-19T11:54:16;13.50;99.90
22558;DHT22;11445;53.816;8.902;2023-04-19T11:57:00;13.60;99.90
22558;DHT22;11445;53.816;8.902;2023-04-19T11:59:30;13.60;99.90
22558;DHT22;11445;53.816;8.902;2023-04-19T12:02:05;13.70;99.90
22558;DHT22;11445;53.816;8.902;2023-04-19T12:04:32;13.70;99.90
22558;DHT22;11445;53.816;8.902;2023-04-19T12:07:01;13.70;99.90
22558;DHT22;11445;53.816;8.902;2023-04-19T12:09:31;13.70;99.90
22558;DHT22;11445;53.816;8.902;2023-04-19T12:11:58;13.80;99.90
22558;DHT22;11445;53.816;8.902;2023-04-19T12:14:26;13.80;99.90
22558;DHT22;11445;53.816;8.902;2023-04-19T12:17:07;13.80;99.90
22558;DHT22;11445;53.816;8.902;2023-04-19T12:19:36;13.90;99.90
22558;DHT22;11445;53.816;8.902;2023-04-19T12:22:12;13.90;99.90
22558;DHT22;11445;53.816;8.902;2023-04-19T12:24:39;13.90;99.90
22558;DHT22;11445;53.816;8.902;2023-04-19T12:27:07;13.90;99.90
22558;DHT22;11445;53.816;8.902;2023-04-19T12:29:34;13.90;99.90
22558;DHT22;11445;53.816;8.902;2023-04-19T12:32:02;13.90;99.90
22558;DHT22;11445;53.816;8.902;2023-04-19T12:34:29;13.90;99.90
22558;DHT22;11445;53.816;8.902;2023-04-19T12:36:56;13.80;99.90
22558;DHT22;11445;53.816;8.902;2023-04-19T12:39:25;13.80;99.90
22558;DHT22;11445;53.816;8.902;2023-04-19T12:41:53;13.80;99.90
22558;DHT22;11445;53.816;8.902;2023-04-19T12:44:20;13.80;99.90
22558;DHT22;11445;53.816;8.902;2023-04-19T12:46:47;13.90;99.90
22558;DHT22;11445;53.816;8.902;2023-04-19T12:49:17;14.00;99.90
22558;DHT22;11445;53.816;8.902;2023-04-19T12:51:44;14.10;99.90
22558;DHT22;11445;53.816;8.902;2023-04-19T12:54:12;14.10;99.90
22558;DHT22;11445;53.816;8.902;2023-04-19T12:56:41;14.10;99.90
22558;DHT22;11445;53.816;8.902;2023-04-19T12:59:08;14.10;99.90
22558;DHT22;11445;53.816;8.902;2023-04-19T13:01:36;14.10;99.90
22558;DHT22;11445;53.816;8.902;2023-04-19T13:04:03;14.00;99.90
22558;DHT22;11445;53.816;8.902;2023-04-19T13:06:30;14.00;99.90
22558;DHT22;11445;53.816;8.902;2023-04-19T13:08:57;14.10;99.90
22558;DHT22;11445;53.816;8.902;2023-04-19T13:11:24;14.00;99.90
22558;DHT22;11445;53.816;8.902;2023-04-19T13:13:52;14.00;99.90
22558;DHT22;11445;53.816;8.902;2023-04-19T13:16:20;14.00;99.90
22558;DHT22;11445;53.816;8.902;2023-04-19T13:18:47;13.90;99.90
22558;DHT22;11445;53.816;8.902;2023-04-19T13:21:15;14.00;99.90
22558;DHT22;11445;53.816;8.902;2023-04-19T13:23:43;14.00;99.90
22558;DHT22;11445;53.816;8.902;2023-04-19T13:26:10;14.00;99.90
22558;DHT22;11445;53.816;8.902;2023-04-19T13:28:38;14.00;99.90
22558;DHT22;11445;53.816;8.902;2023-04-19T13:31:07;14.00;99.90
22558;DHT22;11445;53.816;8.902;2023-04-19T13:33:34;14.00;99.90
22558;DHT22;11445;53.816;8.902;2023-04-19T13:36:01;14.00;99.90
22558;DHT22;11445;53.816;8.902;2023-04-19T13:38:28;14.00;99.90
22558;DHT22;11445;53.816;8.902;2023-04-19T13:40:55;14.10;99.90
22558;DHT22;11445;53.816;8.902;2023-04-19T13:43:22;14.10;99.90
22558;DHT22;11445;53.816;8.902;2023-04-19T13:45:49;14.10;99.90
22558;DHT22;11445;53.816;8.902;2023-04-19T13:48:18;14.10;99.90
22558;DHT22;11445;53.816;8.902;2023-04-19T13:50:45;14.10;99.90
22558;DHT22;11445;53.816;8.902;2023-04-19T13:53:12;14.00;99.90
22558;DHT22;11445;53.816;8.902;2023-04-19T13:55:39;14.00;99.90
22558;DHT22;11445;53.816;8.902;2023-04-19T13:58:06;14.00;99.90
22558;DHT22;11445;53.816;8.902;2023-04-19T14:00:33;14.00;99.90
22558;DHT22;11445;53.816;8.902;2023-04-19T14:03:00;14.00;99.90
22558;DHT22;11445;53.816;8.902;2023-04-19T14:05:29;14.00;99.90
22558;DHT22;11445;53.816;8.902;2023-04-19T14:07:56;14.00;99.90
22558;DHT22;11445;53.816;8.902;2023-04-19T14:10:24;14.00;99.90
22558;DHT22;11445;53.816;8.902;2023-04-19T14:12:51;14.10;99.90
22558;DHT22;11445;53.816;8.902;2023-04-19T14:15:18;14.20;99.90
22558;DHT22;11445;53.816;8.902;2023-04-19T14:17:46;14.20;99.90
22558;DHT22;11445;53.816;8.902;2023-04-19T14:20:13;14.20;99.90
22558;DHT22;11445;53.816;8.902;2023-04-19T14:22:42;14.20;99.90
22558;DHT22;11445;53.816;8.902;2023-04-19T14:25:09;14.20;99.90
22558;DHT22;11445;53.816;8.902;2023-04-19T14:27:37;14.10;99.90
22558;DHT22;11445;53.816;8.902;2023-04-19T14:30:05;14.10;99.90
22558;DHT22;11445;53.816;8.902;2023-04-19T14:32:32;14.10;99.90
22558;DHT22;11445;53.816;8.902;2023-04-19T14:35:00;14.00;99.90
22558;DHT22;11445;53.816;8.902;2023-04-19T14:37:27;14.00;99.90
22558;DHT22;11445;53.816;8.902;2023-04-19T14:39:56;14.00;99.90
22558;DHT22;11445;53.816;8.902;2023-04-19T14:42:23;13.90;99.90
22558;DHT22;11445;53.816;8.902;2023-04-19T14:44:50;14.00;99.90
22558;DHT22;11445;53.816;8.902;2023-04-19T14:47:18;13.90;99.90
22558;DHT22;11445;53.816;8.902;2023-04-19T14:49:45;13.90;99.90
22558;DHT22;11445;53.816;8.902;2023-04-19T14:52:12;13.90;99.90
22558;DHT22;11445;53.816;8.902;2023-04-19T14:54:39;13.90;99.90
22558;DHT22;11445;53.816;8.902;2023-04-19T14:57:08;13.90;99.90
22558;DHT22;11445;53.816;8.902;2023-04-19T14:59:35;13.90;99.90
22558;DHT22;11445;53.816;8.902;2023-04-19T15:02:02;13.90;99.90
22558;DHT22;11445;53.816;8.902;2023-04-19T15:04:32;13.90;99.90
22558;DHT22;11445;53.816;8.902;2023-04-19T15:07:00;13.90;99.90
22558;DHT22;11445;53.816;8.902;2023-04-19T15:09:27;13.90;99.90
22558;DHT22;11445;53.816;8.902;2023-04-19T15:11:54;14.00;99.90
22558;DHT22;11445;53.816;8.902;2023-04-19T15:14:23;13.90;99.90
22558;DHT22;11445;53.816;8.902;2023-04-19T15:16:50;14.00;99.90
22558;DHT22;11445;53.816;8.902;2023-04-19T15:19:17;13.90;99.90
22558;DHT22;11445;53.816;8.902;2023-04-19T15:21:44;13.90;99.90
22558;DHT22;11445;53.816;8.902;2023-04-19T15:24:11;13.90;99.90
22558;DHT22;11445;53.816;8.902;2023-04-19T15:26:38;13.80;99.90
22558;DHT22;11445;53.816;8.902;2023-04-19T15:29:05;13.80;99.90
22558;DHT22;11445;53.816;8.902;2023-04-19T15:31:33;13.80;99.90
22558;DHT22;11445;53.816;8.902;2023-04-19T15:34:01;13.80;99.90
22558;DHT22;11445;53.816;8.902;2023-04-19T15:36:28;13.70;99.90
22558;DHT22;11445;53.816;8.902;2023-04-19T15:38:56;13.60;99.90
22558;DHT22;11445;53.816;8.902;2023-04-19T15:41:23;13.60;99.90
22558;DHT22;11445;53.816;8.902;2023-04-19T15:43:50;13.50;99.90
22558;DHT22;11445;53.816;8.902;2023-04-19T15:46:17;13.50;99.90